RKSO/OSN METAR and TAF weather

Enter ICAO airport designator
Station Type Date Time Source
RKSO METAR 2020/07/10 20:58 UTC NOAA

RKSO 102058Z 00000KT 7SM BKN034 22/20 A2967 RMK AO2A SLP050 T02160203 52015 $


Station Type Date Time Source
RKSO Decoded METAR 2020/07/10 20:58 UTC NOAA

Osan Ab, Korea, South (RKSO) 37-06N 127-02E 12M
Jul 10, 2020 - 04:58 PM EDT / 2020.07.10 2058 UTC
Wind: Calm:0
Visibility: 7 mile(s):0
Sky conditions: mostly cloudy
Temperature: 70.9 F (21.6 C)
Dew Point: 68.5 F (20.3 C)
Relative Humidity: 92%
Pressure (altimeter): 29.67 in. Hg (1004 hPa)
Pressure tendency: 0.04 inches (1.5 hPa) higher than three hours ago
ob: RKSO 102058Z 00000KT 7SM BKN034 22/20 A2967 RMK AO2A SLP050 T02160203 52015
cycle: 21

Station Type Date Time Source
RKSO TAF 2020/07/10 17:03 UTC NOAA

TAF TAF RKSO 101700Z 1017/1123 VRB06KT 8000 BR SCT015 QNH2959INS
BECMG 1018/1019 VRB06KT 8000 BR FEW015 QNH2960INS
BECMG 1108/1109 03012KT 9999 NSW BKN035 QNH2972INS
BECMG 1115/1116 VRB06KT 9999 FEW040 QNH2979INS TX32/1105Z TN20/1117Z

Example: see airport list